sensor_id;sensor_type;location;lat;lon;timestamp;P1;durP1;ratioP1;P2;durP2;ratioP2
37067;SDS011;22982;42.848;25.468;2023-05-09T00:03:42;11.68;;;8.90;;
37067;SDS011;22982;42.848;25.468;2023-05-09T00:08:45;26.60;;;17.10;;
37067;SDS011;22982;42.848;25.468;2023-05-09T00:13:48;36.75;;;21.27;;
37067;SDS011;22982;42.848;25.468;2023-05-09T00:18:51;15.88;;;10.98;;
37067;SDS011;22982;42.848;25.468;2023-05-09T00:23:54;9.10;;;7.20;;
37067;SDS011;22982;42.848;25.468;2023-05-09T00:28:57;9.57;;;5.78;;
37067;SDS011;22982;42.848;25.468;2023-05-09T00:34:00;6.40;;;5.35;;
37067;SDS011;22982;42.848;25.468;2023-05-09T00:39:02;7.35;;;4.82;;
37067;SDS011;22982;42.848;25.468;2023-05-09T00:44:06;8.07;;;6.40;;
37067;SDS011;22982;42.848;25.468;2023-05-09T00:49:09;9.65;;;6.82;;
37067;SDS011;22982;42.848;25.468;2023-05-09T00:54:13;23.42;;;15.52;;
37067;SDS011;22982;42.848;25.468;2023-05-09T00:59:16;15.25;;;10.52;;
37067;SDS011;22982;42.848;25.468;2023-05-09T01:04:19;12.15;;;8.75;;
37067;SDS011;22982;42.848;25.468;2023-05-09T01:14:49;23.13;;;13.00;;
37067;SDS011;22982;42.848;25.468;2023-05-09T01:25:27;16.00;;;8.75;;
37067;SDS011;22982;42.848;25.468;2023-05-09T01:30:39;9.10;;;6.47;;
37067;SDS011;22982;42.848;25.468;2023-05-09T01:35:47;6.97;;;5.70;;
37067;SDS011;22982;42.848;25.468;2023-05-09T01:40:54;10.88;;;6.82;;
37067;SDS011;22982;42.848;25.468;2023-05-09T01:46:00;18.58;;;11.43;;
37067;SDS011;22982;42.848;25.468;2023-05-09T01:51:07;9.48;;;7.55;;
37067;SDS011;22982;42.848;25.468;2023-05-09T01:56:13;11.68;;;8.90;;
37067;SDS011;22982;42.848;25.468;2023-05-09T02:01:18;12.00;;;8.77;;
37067;SDS011;22982;42.848;25.468;2023-05-09T02:06:21;9.05;;;6.57;;
37067;SDS011;22982;42.848;25.468;2023-05-09T02:11:26;10.65;;;7.60;;
37067;SDS011;22982;42.848;25.468;2023-05-09T02:16:28;9.35;;;6.70;;
37067;SDS011;22982;42.848;25.468;2023-05-09T02:21:31;11.00;;;7.60;;
37067;SDS011;22982;42.848;25.468;2023-05-09T02:26:33;10.55;;;6.85;;
37067;SDS011;22982;42.848;25.468;2023-05-09T02:31:36;6.53;;;5.65;;
37067;SDS011;22982;42.848;25.468;2023-05-09T02:36:42;6.22;;;4.63;;
37067;SDS011;22982;42.848;25.468;2023-05-09T02:41:47;6.88;;;4.63;;
37067;SDS011;22982;42.848;25.468;2023-05-09T02:46:52;5.78;;;4.90;;
37067;SDS011;22982;42.848;25.468;2023-05-09T02:51:54;8.07;;;6.43;;
37067;SDS011;22982;42.848;25.468;2023-05-09T02:56:57;8.77;;;7.30;;
37067;SDS011;22982;42.848;25.468;2023-05-09T03:02:00;7.55;;;6.40;;
37067;SDS011;22982;42.848;25.468;2023-05-09T03:07:03;8.20;;;6.07;;
37067;SDS011;22982;42.848;25.468;2023-05-09T03:12:07;11.15;;;7.95;;
37067;SDS011;22982;42.848;25.468;2023-05-09T03:17:10;13.95;;;8.07;;
37067;SDS011;22982;42.848;25.468;2023-05-09T03:22:13;14.10;;;9.73;;
37067;SDS011;22982;42.848;25.468;2023-05-09T03:27:26;13.45;;;8.95;;
37067;SDS011;22982;42.848;25.468;2023-05-09T03:32:28;27.10;;;16.23;;
37067;SDS011;22982;42.848;25.468;2023-05-09T03:37:31;13.82;;;10.50;;
37067;SDS011;22982;42.848;25.468;2023-05-09T03:42:34;12.90;;;10.07;;
37067;SDS011;22982;42.848;25.468;2023-05-09T03:47:37;12.27;;;9.98;;
37067;SDS011;22982;42.848;25.468;2023-05-09T03:52:40;13.45;;;11.02;;
37067;SDS011;22982;42.848;25.468;2023-05-09T03:57:42;13.43;;;10.48;;
37067;SDS011;22982;42.848;25.468;2023-05-09T04:02:45;16.70;;;11.88;;
37067;SDS011;22982;42.848;25.468;2023-05-09T04:07:57;9.60;;;8.13;;
37067;SDS011;22982;42.848;25.468;2023-05-09T04:12:59;11.68;;;9.02;;
37067;SDS011;22982;42.848;25.468;2023-05-09T04:18:03;14.52;;;11.02;;
37067;SDS011;22982;42.848;25.468;2023-05-09T04:23:06;26.77;;;16.60;;
37067;SDS011;22982;42.848;25.468;2023-05-09T04:28:08;10.63;;;8.23;;
37067;SDS011;22982;42.848;25.468;2023-05-09T04:33:12;19.02;;;9.75;;
37067;SDS011;22982;42.848;25.468;2023-05-09T04:38:15;16.33;;;8.75;;
37067;SDS011;22982;42.848;25.468;2023-05-09T04:43:18;15.13;;;9.77;;
37067;SDS011;22982;42.848;25.468;2023-05-09T04:48:22;27.23;;;13.23;;
37067;SDS011;22982;42.848;25.468;2023-05-09T04:53:24;14.88;;;8.45;;
37067;SDS011;22982;42.848;25.468;2023-05-09T04:58:30;5.85;;;4.03;;
37067;SDS011;22982;42.848;25.468;2023-05-09T05:03:35;5.53;;;3.63;;
37067;SDS011;22982;42.848;25.468;2023-05-09T05:08:39;6.28;;;2.92;;
37067;SDS011;22982;42.848;25.468;2023-05-09T05:13:43;5.45;;;3.45;;
37067;SDS011;22982;42.848;25.468;2023-05-09T05:18:45;3.65;;;3.08;;
37067;SDS011;22982;42.848;25.468;2023-05-09T05:23:50;3.80;;;3.00;;
37067;SDS011;22982;42.848;25.468;2023-05-09T05:28:53;4.20;;;3.75;;
37067;SDS011;22982;42.848;25.468;2023-05-09T05:34:00;14.38;;;9.13;;
37067;SDS011;22982;42.848;25.468;2023-05-09T05:39:05;11.20;;;7.50;;
37067;SDS011;22982;42.848;25.468;2023-05-09T05:44:07;11.70;;;9.43;;
37067;SDS011;22982;42.848;25.468;2023-05-09T05:49:10;7.95;;;6.78;;
37067;SDS011;22982;42.848;25.468;2023-05-09T05:54:12;9.23;;;6.40;;
37067;SDS011;22982;42.848;25.468;2023-05-09T05:59:16;7.63;;;6.60;;
37067;SDS011;22982;42.848;25.468;2023-05-09T06:04:18;7.18;;;6.00;;
37067;SDS011;22982;42.848;25.468;2023-05-09T06:09:21;9.18;;;6.47;;
37067;SDS011;22982;42.848;25.468;2023-05-09T06:14:24;8.82;;;6.53;;
37067;SDS011;22982;42.848;25.468;2023-05-09T06:19:27;8.70;;;6.03;;
37067;SDS011;22982;42.848;25.468;2023-05-09T06:24:30;7.13;;;5.25;;
37067;SDS011;22982;42.848;25.468;2023-05-09T06:29:37;5.80;;;4.53;;
37067;SDS011;22982;42.848;25.468;2023-05-09T06:34:39;6.90;;;4.20;;
37067;SDS011;22982;42.848;25.468;2023-05-09T06:39:43;5.20;;;3.80;;
37067;SDS011;22982;42.848;25.468;2023-05-09T06:44:45;5.22;;;4.22;;
37067;SDS011;22982;42.848;25.468;2023-05-09T06:49:48;4.95;;;3.60;;
37067;SDS011;22982;42.848;25.468;2023-05-09T06:54:51;6.55;;;5.00;;
37067;SDS011;22982;42.848;25.468;2023-05-09T06:59:54;8.30;;;6.43;;
37067;SDS011;22982;42.848;25.468;2023-05-09T07:04:56;7.32;;;5.70;;
37067;SDS011;22982;42.848;25.468;2023-05-09T07:09:59;9.98;;;7.03;;
37067;SDS011;22982;42.848;25.468;2023-05-09T07:15:12;8.18;;;5.97;;
37067;SDS011;22982;42.848;25.468;2023-05-09T07:20:29;9.25;;;5.32;;
37067;SDS011;22982;42.848;25.468;2023-05-09T07:25:32;6.45;;;4.63;;
37067;SDS011;22982;42.848;25.468;2023-05-09T07:30:34;11.02;;;5.60;;
37067;SDS011;22982;42.848;25.468;2023-05-09T07:35:37;6.70;;;5.28;;
37067;SDS011;22982;42.848;25.468;2023-05-09T07:40:39;18.98;;;14.25;;
37067;SDS011;22982;42.848;25.468;2023-05-09T07:45:42;9.68;;;6.47;;
37067;SDS011;22982;42.848;25.468;2023-05-09T07:50:45;7.65;;;6.30;;
37067;SDS011;22982;42.848;25.468;2023-05-09T07:55:47;8.65;;;6.95;;
37067;SDS011;22982;42.848;25.468;2023-05-09T08:00:51;8.30;;;5.57;;
37067;SDS011;22982;42.848;25.468;2023-05-09T08:05:56;11.00;;;8.00;;
37067;SDS011;22982;42.848;25.468;2023-05-09T08:11:00;13.75;;;7.85;;
37067;SDS011;22982;42.848;25.468;2023-05-09T08:16:02;13.27;;;10.18;;
37067;SDS011;22982;42.848;25.468;2023-05-09T08:21:05;8.23;;;7.43;;
37067;SDS011;22982;42.848;25.468;2023-05-09T08:26:07;10.07;;;9.07;;
37067;SDS011;22982;42.848;25.468;2023-05-09T08:31:09;13.82;;;11.25;;
37067;SDS011;22982;42.848;25.468;2023-05-09T08:36:13;7.03;;;6.32;;
37067;SDS011;22982;42.848;25.468;2023-05-09T08:41:15;7.85;;;6.25;;
37067;SDS011;22982;42.848;25.468;2023-05-09T08:46:17;9.32;;;8.43;;
37067;SDS011;22982;42.848;25.468;2023-05-09T08:51:28;7.80;;;7.00;;
37067;SDS011;22982;42.848;25.468;2023-05-09T08:56:33;6.35;;;5.60;;
37067;SDS011;22982;42.848;25.468;2023-05-09T09:01:37;8.65;;;6.55;;
37067;SDS011;22982;42.848;25.468;2023-05-09T09:06:41;9.35;;;8.35;;
37067;SDS011;22982;42.848;25.468;2023-05-09T09:11:44;9.57;;;7.50;;
37067;SDS011;22982;42.848;25.468;2023-05-09T09:16:48;7.72;;;6.70;;
37067;SDS011;22982;42.848;25.468;2023-05-09T09:21:53;8.23;;;6.75;;
37067;SDS011;22982;42.848;25.468;2023-05-09T09:26:58;9.48;;;6.80;;
37067;SDS011;22982;42.848;25.468;2023-05-09T09:32:06;8.93;;;7.15;;
37067;SDS011;22982;42.848;25.468;2023-05-09T09:37:19;18.25;;;16.30;;
37067;SDS011;22982;42.848;25.468;2023-05-09T09:42:23;7.68;;;6.88;;
37067;SDS011;22982;42.848;25.468;2023-05-09T09:47:30;9.73;;;7.82;;
37067;SDS011;22982;42.848;25.468;2023-05-09T09:52:33;12.20;;;9.88;;
37067;SDS011;22982;42.848;25.468;2023-05-09T09:57:36;28.08;;;20.02;;
37067;SDS011;22982;42.848;25.468;2023-05-09T10:08:00;16.08;;;12.60;;
37067;SDS011;22982;42.848;25.468;2023-05-09T10:13:06;10.15;;;6.75;;
37067;SDS011;22982;42.848;25.468;2023-05-09T10:18:10;10.27;;;8.88;;
37067;SDS011;22982;42.848;25.468;2023-05-09T10:23:19;9.88;;;8.07;;
37067;SDS011;22982;42.848;25.468;2023-05-09T10:33:47;10.98;;;8.93;;
37067;SDS011;22982;42.848;25.468;2023-05-09T10:38:52;9.88;;;8.88;;
37067;SDS011;22982;42.848;25.468;2023-05-09T10:43:56;9.48;;;8.00;;
37067;SDS011;22982;42.848;25.468;2023-05-09T10:48:59;10.88;;;9.77;;
37067;SDS011;22982;42.848;25.468;2023-05-09T10:54:08;8.30;;;7.35;;
37067;SDS011;22982;42.848;25.468;2023-05-09T10:59:31;10.75;;;9.48;;
37067;SDS011;22982;42.848;25.468;2023-05-09T11:04:34;50.45;;;33.22;;
37067;SDS011;22982;42.848;25.468;2023-05-09T11:09:38;88.88;;;55.83;;
37067;SDS011;22982;42.848;25.468;2023-05-09T11:14:42;66.22;;;45.17;;
37067;SDS011;22982;42.848;25.468;2023-05-09T11:24:50;23.55;;;19.83;;
37067;SDS011;22982;42.848;25.468;2023-05-09T11:29:55;16.30;;;14.05;;
37067;SDS011;22982;42.848;25.468;2023-05-09T11:35:08;11.02;;;9.93;;
37067;SDS011;22982;42.848;25.468;2023-05-09T11:40:13;14.57;;;11.15;;
37067;SDS011;22982;42.848;25.468;2023-05-09T11:45:19;8.30;;;7.45;;
37067;SDS011;22982;42.848;25.468;2023-05-09T11:50:22;13.02;;;9.35;;
37067;SDS011;22982;42.848;25.468;2023-05-09T11:55:25;11.63;;;8.68;;
37067;SDS011;22982;42.848;25.468;2023-05-09T12:00:31;10.05;;;8.95;;
37067;SDS011;22982;42.848;25.468;2023-05-09T12:05:34;9.38;;;6.13;;
37067;SDS011;22982;42.848;25.468;2023-05-09T12:10:40;11.90;;;9.85;;
37067;SDS011;22982;42.848;25.468;2023-05-09T12:15:42;11.48;;;9.40;;
37067;SDS011;22982;42.848;25.468;2023-05-09T12:20:48;10.90;;;8.75;;
37067;SDS011;22982;42.848;25.468;2023-05-09T12:30:59;13.02;;;11.43;;
37067;SDS011;22982;42.848;25.468;2023-05-09T12:36:09;11.20;;;8.77;;
37067;SDS011;22982;42.848;25.468;2023-05-09T12:41:13;17.65;;;11.75;;
37067;SDS011;22982;42.848;25.468;2023-05-09T12:46:37;13.05;;;10.07;;
37067;SDS011;22982;42.848;25.468;2023-05-09T12:51:46;11.38;;;9.27;;
37067;SDS011;22982;42.848;25.468;2023-05-09T12:56:50;11.00;;;8.70;;
37067;SDS011;22982;42.848;25.468;2023-05-09T13:01:55;17.40;;;14.20;;
37067;SDS011;22982;42.848;25.468;2023-05-09T13:07:06;15.70;;;12.32;;
37067;SDS011;22982;42.848;25.468;2023-05-09T13:12:14;14.75;;;11.38;;
37067;SDS011;22982;42.848;25.468;2023-05-09T13:17:16;15.48;;;9.95;;
37067;SDS011;22982;42.848;25.468;2023-05-09T13:22:19;20.05;;;12.40;;
37067;SDS011;22982;42.848;25.468;2023-05-09T13:27:21;15.98;;;10.68;;
37067;SDS011;22982;42.848;25.468;2023-05-09T13:32:25;17.98;;;12.13;;
37067;SDS011;22982;42.848;25.468;2023-05-09T13:37:27;15.27;;;11.55;;
37067;SDS011;22982;42.848;25.468;2023-05-09T13:42:29;17.63;;;13.15;;
37067;SDS011;22982;42.848;25.468;2023-05-09T13:47:33;17.10;;;12.10;;
37067;SDS011;22982;42.848;25.468;2023-05-09T13:52:37;18.95;;;13.60;;
37067;SDS011;22982;42.848;25.468;2023-05-09T13:57:41;32.17;;;22.45;;
37067;SDS011;22982;42.848;25.468;2023-05-09T14:02:44;51.40;;;38.53;;
37067;SDS011;22982;42.848;25.468;2023-05-09T14:07:47;28.77;;;22.15;;
37067;SDS011;22982;42.848;25.468;2023-05-09T14:24:38;78.50;;;54.83;;
37067;SDS011;22982;42.848;25.468;2023-05-09T14:29:42;113.70;;;73.65;;
37067;SDS011;22982;42.848;25.468;2023-05-09T14:34:45;118.75;;;74.50;;
37067;SDS011;22982;42.848;25.468;2023-05-09T14:39:50;31.20;;;21.23;;
37067;SDS011;22982;42.848;25.468;2023-05-09T14:44:53;36.30;;;23.85;;
37067;SDS011;22982;42.848;25.468;2023-05-09T14:56:16;66.35;;;38.78;;
37067;SDS011;22982;42.848;25.468;2023-05-09T15:01:38;52.65;;;29.95;;
37067;SDS011;22982;42.848;25.468;2023-05-09T15:06:40;77.38;;;38.55;;
37067;SDS011;22982;42.848;25.468;2023-05-09T15:12:00;29.48;;;19.75;;
37067;SDS011;22982;42.848;25.468;2023-05-09T15:17:03;25.50;;;16.08;;
37067;SDS011;22982;42.848;25.468;2023-05-09T15:22:05;23.40;;;19.00;;
37067;SDS011;22982;42.848;25.468;2023-05-09T15:27:09;18.92;;;14.75;;
37067;SDS011;22982;42.848;25.468;2023-05-09T15:32:12;21.23;;;15.57;;
37067;SDS011;22982;42.848;25.468;2023-05-09T15:37:15;20.90;;;14.98;;
37067;SDS011;22982;42.848;25.468;2023-05-09T15:42:17;24.35;;;17.60;;
37067;SDS011;22982;42.848;25.468;2023-05-09T15:47:20;23.17;;;17.80;;
37067;SDS011;22982;42.848;25.468;2023-05-09T15:52:23;23.38;;;18.83;;
37067;SDS011;22982;42.848;25.468;2023-05-09T15:57:27;31.83;;;25.42;;
37067;SDS011;22982;42.848;25.468;2023-05-09T16:02:29;21.90;;;16.73;;
37067;SDS011;22982;42.848;25.468;2023-05-09T16:07:32;25.20;;;19.85;;
37067;SDS011;22982;42.848;25.468;2023-05-09T16:12:36;31.75;;;21.35;;
37067;SDS011;22982;42.848;25.468;2023-05-09T16:17:39;22.35;;;17.80;;
37067;SDS011;22982;42.848;25.468;2023-05-09T16:22:42;26.23;;;19.92;;
37067;SDS011;22982;42.848;25.468;2023-05-09T16:27:44;30.92;;;22.08;;
37067;SDS011;22982;42.848;25.468;2023-05-09T16:32:46;30.70;;;23.35;;
37067;SDS011;22982;42.848;25.468;2023-05-09T16:37:49;141.32;;;62.35;;
37067;SDS011;22982;42.848;25.468;2023-05-09T16:42:51;58.13;;;32.75;;
37067;SDS011;22982;42.848;25.468;2023-05-09T16:47:54;41.55;;;22.38;;
37067;SDS011;22982;42.848;25.468;2023-05-09T16:53:01;32.88;;;22.33;;
37067;SDS011;22982;42.848;25.468;2023-05-09T16:58:05;35.13;;;23.30;;
37067;SDS011;22982;42.848;25.468;2023-05-09T17:03:08;24.45;;;18.02;;
37067;SDS011;22982;42.848;25.468;2023-05-09T17:08:11;28.08;;;21.00;;
37067;SDS011;22982;42.848;25.468;2023-05-09T17:13:13;26.52;;;20.23;;
37067;SDS011;22982;42.848;25.468;2023-05-09T17:18:17;26.20;;;19.33;;
37067;SDS011;22982;42.848;25.468;2023-05-09T17:23:36;22.90;;;18.67;;
37067;SDS011;22982;42.848;25.468;2023-05-09T17:28:39;26.67;;;18.98;;
37067;SDS011;22982;42.848;25.468;2023-05-09T17:33:42;43.80;;;25.50;;
37067;SDS011;22982;42.848;25.468;2023-05-09T17:38:45;26.27;;;19.67;;
37067;SDS011;22982;42.848;25.468;2023-05-09T17:43:47;23.80;;;19.20;;
37067;SDS011;22982;42.848;25.468;2023-05-09T17:48:52;27.40;;;19.40;;
37067;SDS011;22982;42.848;25.468;2023-05-09T17:53:54;25.42;;;20.50;;
37067;SDS011;22982;42.848;25.468;2023-05-09T17:58:58;32.80;;;22.52;;
37067;SDS011;22982;42.848;25.468;2023-05-09T18:04:00;28.40;;;19.02;;
37067;SDS011;22982;42.848;25.468;2023-05-09T18:09:03;30.42;;;20.38;;
37067;SDS011;22982;42.848;25.468;2023-05-09T18:14:06;27.92;;;20.02;;
37067;SDS011;22982;42.848;25.468;2023-05-09T18:19:09;36.42;;;24.98;;
37067;SDS011;22982;42.848;25.468;2023-05-09T18:24:11;28.77;;;21.13;;
37067;SDS011;22982;42.848;25.468;2023-05-09T18:29:18;28.25;;;21.55;;
37067;SDS011;22982;42.848;25.468;2023-05-09T18:34:20;40.97;;;23.75;;
37067;SDS011;22982;42.848;25.468;2023-05-09T18:39:23;138.98;;;57.85;;
37067;SDS011;22982;42.848;25.468;2023-05-09T18:44:26;64.00;;;31.38;;
37067;SDS011;22982;42.848;25.468;2023-05-09T18:49:29;59.63;;;30.42;;
37067;SDS011;22982;42.848;25.468;2023-05-09T18:54:31;39.53;;;23.15;;
37067;SDS011;22982;42.848;25.468;2023-05-09T18:59:34;47.30;;;29.52;;
37067;SDS011;22982;42.848;25.468;2023-05-09T19:04:36;41.45;;;26.02;;
37067;SDS011;22982;42.848;25.468;2023-05-09T19:09:39;30.00;;;22.40;;
37067;SDS011;22982;42.848;25.468;2023-05-09T19:14:42;35.00;;;22.38;;
37067;SDS011;22982;42.848;25.468;2023-05-09T19:19:45;30.85;;;21.67;;
37067;SDS011;22982;42.848;25.468;2023-05-09T19:24:47;30.13;;;22.35;;
37067;SDS011;22982;42.848;25.468;2023-05-09T19:29:52;37.28;;;21.98;;
37067;SDS011;22982;42.848;25.468;2023-05-09T19:34:54;32.30;;;22.42;;
37067;SDS011;22982;42.848;25.468;2023-05-09T19:39:56;30.98;;;22.52;;
37067;SDS011;22982;42.848;25.468;2023-05-09T19:45:00;31.35;;;20.75;;
37067;SDS011;22982;42.848;25.468;2023-05-09T19:50:02;32.75;;;22.40;;
37067;SDS011;22982;42.848;25.468;2023-05-09T19:55:05;74.60;;;37.88;;
37067;SDS011;22982;42.848;25.468;2023-05-09T20:00:10;27.75;;;20.38;;
37067;SDS011;22982;42.848;25.468;2023-05-09T20:05:13;34.78;;;23.15;;
37067;SDS011;22982;42.848;25.468;2023-05-09T20:10:15;32.42;;;21.70;;
37067;SDS011;22982;42.848;25.468;2023-05-09T20:15:18;23.83;;;17.25;;
37067;SDS011;22982;42.848;25.468;2023-05-09T20:20:20;27.30;;;19.42;;
37067;SDS011;22982;42.848;25.468;2023-05-09T20:25:24;29.17;;;19.77;;
37067;SDS011;22982;42.848;25.468;2023-05-09T20:30:26;26.48;;;19.67;;
37067;SDS011;22982;42.848;25.468;2023-05-09T20:35:29;37.35;;;22.25;;
37067;SDS011;22982;42.848;25.468;2023-05-09T20:40:32;33.80;;;24.25;;
37067;SDS011;22982;42.848;25.468;2023-05-09T20:45:35;33.63;;;24.50;;
37067;SDS011;22982;42.848;25.468;2023-05-09T20:50:40;30.75;;;23.23;;
37067;SDS011;22982;42.848;25.468;2023-05-09T20:55:43;34.38;;;24.13;;
37067;SDS011;22982;42.848;25.468;2023-05-09T21:00:45;33.28;;;23.02;;
37067;SDS011;22982;42.848;25.468;2023-05-09T21:05:47;38.63;;;24.35;;
37067;SDS011;22982;42.848;25.468;2023-05-09T21:10:51;28.23;;;20.83;;
37067;SDS011;22982;42.848;25.468;2023-05-09T21:15:53;48.85;;;28.88;;
37067;SDS011;22982;42.848;25.468;2023-05-09T21:20:55;48.40;;;28.35;;
37067;SDS011;22982;42.848;25.468;2023-05-09T21:25:58;32.33;;;21.40;;
37067;SDS011;22982;42.848;25.468;2023-05-09T21:31:01;35.42;;;24.00;;
37067;SDS011;22982;42.848;25.468;2023-05-09T21:36:04;29.85;;;21.38;;
37067;SDS011;22982;42.848;25.468;2023-05-09T21:41:07;26.95;;;19.95;;
37067;SDS011;22982;42.848;25.468;2023-05-09T21:46:10;25.52;;;18.65;;
37067;SDS011;22982;42.848;25.468;2023-05-09T21:51:13;26.80;;;17.95;;
37067;SDS011;22982;42.848;25.468;2023-05-09T21:56:16;34.50;;;17.65;;
37067;SDS011;22982;42.848;25.468;2023-05-09T22:01:18;28.77;;;17.38;;
37067;SDS011;22982;42.848;25.468;2023-05-09T22:06:21;23.80;;;17.35;;
37067;SDS011;22982;42.848;25.468;2023-05-09T22:11:23;25.63;;;17.83;;
37067;SDS011;22982;42.848;25.468;2023-05-09T22:16:26;22.75;;;17.52;;
37067;SDS011;22982;42.848;25.468;2023-05-09T22:21:29;15.18;;;11.18;;
37067;SDS011;22982;42.848;25.468;2023-05-09T22:26:32;21.92;;;17.05;;
37067;SDS011;22982;42.848;25.468;2023-05-09T22:31:34;17.58;;;12.80;;
37067;SDS011;22982;42.848;25.468;2023-05-09T22:36:37;14.55;;;12.50;;
37067;SDS011;22982;42.848;25.468;2023-05-09T22:41:39;17.90;;;13.57;;
37067;SDS011;22982;42.848;25.468;2023-05-09T22:46:42;15.93;;;12.35;;
37067;SDS011;22982;42.848;25.468;2023-05-09T22:51:45;12.60;;;11.23;;
37067;SDS011;22982;42.848;25.468;2023-05-09T22:56:47;16.48;;;11.93;;
37067;SDS011;22982;42.848;25.468;2023-05-09T23:01:50;11.45;;;10.32;;
37067;SDS011;22982;42.848;25.468;2023-05-09T23:06:54;17.23;;;14.02;;
37067;SDS011;22982;42.848;25.468;2023-05-09T23:11:56;14.80;;;11.55;;
37067;SDS011;22982;42.848;25.468;2023-05-09T23:17:00;17.08;;;12.98;;
37067;SDS011;22982;42.848;25.468;2023-05-09T23:22:02;16.95;;;11.73;;
37067;SDS011;22982;42.848;25.468;2023-05-09T23:27:05;11.93;;;10.48;;
37067;SDS011;22982;42.848;25.468;2023-05-09T23:32:08;11.80;;;9.30;;
37067;SDS011;22982;42.848;25.468;2023-05-09T23:37:10;14.55;;;9.52;;
37067;SDS011;22982;42.848;25.468;2023-05-09T23:42:13;16.25;;;9.23;;
37067;SDS011;22982;42.848;25.468;2023-05-09T23:47:15;13.80;;;8.98;;
37067;SDS011;22982;42.848;25.468;2023-05-09T23:52:18;10.30;;;9.18;;
37067;SDS011;22982;42.848;25.468;2023-05-09T23:57:20;19.20;;;9.80;;
